createdAt,value
2019-02-06T00:00:45.923Z,101195.52
2019-02-06T00:04:53.048Z,101194.68
2019-02-06T00:09:00.663Z,101192.08
2019-02-06T00:13:09.754Z,101183.64
2019-02-06T00:17:16.766Z,101180.99
2019-02-06T00:21:23.777Z,101176.25
2019-02-06T00:25:30.934Z,101185.42
2019-02-06T00:29:37.749Z,101176.99
2019-02-06T00:33:44.801Z,101177.25
2019-02-06T00:37:51.693Z,101176.19
2019-02-06T00:41:58.675Z,101186.91
2019-02-06T00:46:05.868Z,101184.99
2019-02-06T00:50:14.595Z,101177.85
2019-02-06T00:54:24.910Z,101171.44
2019-02-06T00:58:31.785Z,101174.40
2019-02-06T01:02:38.600Z,101178.45
2019-02-06T01:06:45.415Z,101174.27
2019-02-06T01:10:52.376Z,101180.70
2019-02-06T01:14:59.564Z,101179.14
2019-02-06T01:19:07.109Z,101182.70
2019-02-06T01:23:16.127Z,101175.31
2019-02-06T01:27:22.615Z,101176.48
2019-02-06T01:31:31.833Z,101190.23
2019-02-06T01:35:49.246Z,101190.20
2019-02-06T01:39:47.227Z,101191.30
2019-02-06T01:43:54.096Z,101199.44
2019-02-06T01:48:00.953Z,101203.19
2019-02-06T01:52:08.902Z,101193.21
2019-02-06T01:56:17.472Z,101198.53
2019-02-06T02:00:25.651Z,101197.23
2019-02-06T02:04:36.067Z,101194.56
2019-02-06T02:08:57.685Z,101187.33
2019-02-06T02:13:05.120Z,101185.47
2019-02-06T04:43:48.955Z,101102.19
2019-02-06T04:47:56.247Z,101103.13
2019-02-06T04:52:03.363Z,101093.54
2019-02-06T04:56:10.251Z,101100.50
2019-02-06T05:00:23.629Z,101109.69
2019-02-06T05:04:30.546Z,101105.66
2019-02-06T05:08:38.094Z,101114.11
2019-02-06T05:12:45.182Z,101107.13
2019-02-06T05:16:52.131Z,101108.79
2019-02-06T05:20:58.997Z,101104.44
2019-02-06T05:25:06.585Z,101107.66
2019-02-06T05:29:13.682Z,101113.03
2019-02-06T05:33:20.791Z,101104.34
2019-02-06T05:37:32.287Z,101104.34
2019-02-06T05:41:36.527Z,101109.39
2019-02-06T05:45:46.143Z,101100.86
2019-02-06T05:49:53.027Z,101105.08
2019-02-06T05:54:00.653Z,101105.91
2019-02-06T05:58:09.418Z,101102.36
2019-02-06T06:02:16.376Z,101089.72
2019-02-06T06:06:23.225Z,101082.22
2019-02-06T06:10:30.143Z,101086.73
2019-02-06T06:14:36.993Z,101085.80
2019-02-06T06:18:43.838Z,101095.13
2019-02-06T06:22:51.032Z,101099.58
2019-02-06T06:26:57.871Z,101095.52
2019-02-06T06:31:04.754Z,101091.95
2019-02-06T06:35:12.972Z,101091.88
2019-02-06T06:39:20.051Z,101093.30
2019-02-06T06:43:26.932Z,101091.72
2019-02-06T06:47:33.856Z,101096.88
2019-02-06T06:51:40.717Z,101092.28
2019-02-06T06:55:47.600Z,101088.94
2019-02-06T06:59:55.718Z,101101.63
2019-02-06T07:04:02.972Z,101108.25
2019-02-06T07:08:13.383Z,101104.50
2019-02-06T07:12:18.650Z,101103.77
2019-02-06T07:16:26.455Z,101100.14
2019-02-06T07:20:33.848Z,101102.68
2019-02-06T07:24:41.063Z,101109.98
2019-02-06T07:28:48.060Z,101115.69
2019-02-06T07:32:55.034Z,101127.28
2019-02-06T07:37:01.944Z,101130.67
2019-02-06T07:41:08.811Z,101132.58
2019-02-06T07:45:16.521Z,101135.50
2019-02-06T07:49:23.661Z,101131.68
2019-02-06T07:53:30.691Z,101127.64
2019-02-06T07:57:37.711Z,101136.73
2019-02-06T08:01:44.627Z,101135.34
2019-02-06T08:05:51.619Z,101130.34
2019-02-06T08:09:58.506Z,101128.24
2019-02-06T08:14:05.573Z,101126.47
2019-02-06T08:18:12.492Z,101129.59
2019-02-06T08:22:19.421Z,101133.06
2019-02-06T08:26:26.360Z,101138.08
2019-02-06T08:30:41.439Z,101147.33
2019-02-06T08:34:48.374Z,101142.55
2019-02-06T08:38:55.790Z,101149.88
2019-02-06T08:43:03.032Z,101151.47
2019-02-06T08:47:09.994Z,101142.14
2019-02-06T08:51:16.890Z,101152.77
2019-02-06T08:55:26.680Z,101150.95
2019-02-06T08:59:36.173Z,101143.61
2019-02-06T09:03:42.580Z,101153.84
2019-02-06T09:07:49.508Z,101153.73
2019-02-06T09:11:56.393Z,101163.13
2019-02-06T09:16:03.252Z,101157.19
2019-02-06T09:20:14.829Z,101158.59
2019-02-06T09:24:23.814Z,101152.30
2019-02-06T09:28:32.270Z,101147.20
2019-02-06T09:32:40.224Z,101151.55
2019-02-06T09:36:47.187Z,101152.55
2019-02-06T09:40:54.186Z,101150.92
2019-02-06T09:45:01.145Z,101146.06
2019-02-06T09:49:08.037Z,101140.88
2019-02-06T09:53:16.434Z,101135.14
2019-02-06T09:57:25.000Z,101150.64
2019-02-06T10:01:31.988Z,101144.07
2019-02-06T10:05:38.808Z,101147.58
2019-02-06T10:09:45.668Z,101137.48
2019-02-06T10:13:52.976Z,101129.41
2019-02-06T10:18:00.842Z,101128.76
2019-02-06T10:22:07.681Z,101118.80
2019-02-06T10:26:14.548Z,101122.11
2019-02-06T10:30:35.147Z,101113.95
2019-02-06T10:34:42.095Z,101111.28
2019-02-06T10:38:49.003Z,101112.53
2019-02-06T10:42:55.980Z,101104.87
2019-02-06T10:47:02.865Z,101100.41
2019-02-06T10:51:10.437Z,101086.56
2019-02-06T10:55:17.965Z,101090.50
2019-02-06T10:59:25.987Z,101088.65
2019-02-06T11:03:32.928Z,101076.75
2019-02-06T11:07:39.867Z,101070.27
2019-02-06T11:11:46.804Z,101060.28
2019-02-06T11:15:53.857Z,101055.08
2019-02-06T11:20:01.165Z,101046.81
2019-02-06T11:24:10.058Z,101039.23
2019-02-06T11:28:17.970Z,101034.91
2019-02-06T11:32:26.468Z,101027.58
2019-02-06T11:36:33.371Z,101023.03
2019-02-06T11:40:40.318Z,101011.94
2019-02-06T11:44:47.684Z,100997.87
2019-02-06T11:48:55.795Z,100997.55
2019-02-06T11:53:04.903Z,101005.00
2019-02-06T11:57:12.077Z,100983.80
2019-02-06T12:01:28.934Z,100988.55
2019-02-06T12:05:35.935Z,100989.13
2019-02-06T12:09:42.956Z,100984.17
2019-02-06T12:13:49.952Z,100982.06
2019-02-06T12:17:59.350Z,100974.20
2019-02-06T12:22:06.871Z,100967.36
2019-02-06T12:26:14.402Z,100949.00
2019-02-06T12:30:26.846Z,100943.63
2019-02-06T12:34:33.882Z,100934.14
2019-02-06T12:38:52.764Z,100927.45
2019-02-06T12:42:50.922Z,100915.98
2019-02-06T12:46:59.230Z,100914.96
2019-02-06T12:51:06.320Z,100900.77
2019-02-06T12:55:19.620Z,100896.31
2019-02-06T12:59:26.656Z,100896.71
2019-02-06T13:03:33.895Z,100890.20
2019-02-06T13:07:40.989Z,100889.06
2019-02-06T13:11:48.186Z,100882.39
2019-02-06T13:15:55.175Z,100880.30
2019-02-06T13:20:03.479Z,100870.50
2019-02-06T13:24:10.797Z,100870.84
2019-02-06T13:28:17.723Z,100863.56
2019-02-06T13:32:24.969Z,100860.50
2019-02-06T13:36:32.107Z,100860.64
2019-02-06T13:40:45.738Z,100851.75
2019-02-06T13:44:48.036Z,100849.12
2019-02-06T13:48:55.126Z,100842.14
2019-02-06T13:53:02.490Z,100844.05
2019-02-06T13:57:09.710Z,100835.69
2019-02-06T14:01:25.271Z,100822.71
2019-02-06T14:05:30.316Z,100819.89
2019-02-06T14:09:39.291Z,100804.24
2019-02-06T14:13:46.218Z,100808.53
2019-02-06T14:17:54.615Z,100796.95
2019-02-06T14:22:05.511Z,100783.64
2019-02-06T14:26:37.835Z,100778.55
2019-02-06T14:31:54.019Z,100774.73
2019-02-06T14:37:08.596Z,100774.74
2019-02-06T14:41:45.172Z,100776.56
2019-02-06T14:46:30.873Z,100763.03
2019-02-06T14:51:47.806Z,100757.59
2019-02-06T14:56:59.618Z,100761.56
2019-02-06T15:01:42.034Z,100749.66
2019-02-06T15:06:52.565Z,100751.80
2019-02-06T15:11:29.043Z,100734.34
2019-02-06T15:16:39.148Z,100727.74
2019-02-06T15:21:31.714Z,100725.27
2019-02-06T15:26:20.394Z,100725.92
2019-02-06T15:31:19.717Z,100719.17
2019-02-06T15:36:39.718Z,100716.70
2019-02-06T15:41:30.481Z,100711.74
2019-02-06T15:46:30.449Z,100701.50
2019-02-06T15:51:42.329Z,100702.49
2019-02-06T15:56:39.518Z,100693.89
2019-02-06T16:01:31.588Z,100692.55
2019-02-06T16:06:41.695Z,100705.05
2019-02-06T16:12:16.885Z,100695.31
2019-02-06T16:17:38.846Z,100692.16
2019-02-06T16:22:24.534Z,100692.28
2019-02-06T16:27:20.027Z,100685.84
2019-02-06T16:32:30.237Z,100678.70
2019-02-06T16:37:39.863Z,100674.12
2019-02-06T16:42:49.292Z,100673.76
2019-02-06T16:48:07.785Z,100675.34
2019-02-06T16:53:21.247Z,100684.84
2019-02-06T16:58:19.844Z,100668.63
2019-02-06T17:03:23.220Z,100674.98
2019-02-06T17:08:38.342Z,100685.59
2019-02-06T17:13:55.523Z,100685.75
2019-02-06T17:18:44.512Z,100680.16
2019-02-06T17:24:01.536Z,100676.45
2019-02-06T17:29:01.696Z,100679.14
2019-02-06T17:34:15.490Z,100669.34
2019-02-06T17:38:55.547Z,100678.16
2019-02-06T17:43:54.635Z,100667.61
2019-02-06T17:48:44.602Z,100669.50
2019-02-06T17:53:47.638Z,100660.03
2019-02-06T17:58:01.076Z,100654.73
2019-02-06T18:02:08.324Z,100659.33
2019-02-06T18:06:17.787Z,100666.64
2019-02-06T18:10:24.859Z,100658.10
2019-02-06T18:14:33.832Z,100652.31
2019-02-06T18:18:40.801Z,100635.11
2019-02-06T18:22:47.682Z,100634.97
2019-02-06T18:26:55.909Z,100637.77
2019-02-06T18:31:02.817Z,100628.48
2019-02-06T18:35:10.722Z,100634.63
2019-02-06T18:39:18.154Z,100628.08
2019-02-06T18:43:25.125Z,100630.27
2019-02-06T18:47:32.007Z,100639.93
2019-02-06T18:51:39.091Z,100632.89
2019-02-06T18:55:46.972Z,100625.72
2019-02-06T18:59:54.104Z,100621.20
2019-02-06T19:04:03.085Z,100614.00
2019-02-06T19:08:10.286Z,100610.73
2019-02-06T19:12:20.136Z,100616.86
2019-02-06T19:16:27.071Z,100617.77
2019-02-06T19:20:35.784Z,100615.73
2019-02-06T19:24:43.484Z,100592.61
2019-02-06T19:28:50.605Z,100587.48
2019-02-06T19:32:57.849Z,100568.22
2019-02-06T19:37:04.923Z,100560.03
2019-02-06T19:41:11.878Z,100558.94
2019-02-06T19:45:19.324Z,100567.19
2019-02-06T19:49:26.510Z,100551.28
2019-02-06T19:53:33.473Z,100552.31
2019-02-06T19:57:42.074Z,100557.41
2019-02-06T20:01:49.170Z,100560.86
2019-02-06T20:05:56.575Z,100555.20
2019-02-06T20:10:06.815Z,100562.77
2019-02-06T20:14:14.279Z,100564.98
2019-02-06T20:18:21.199Z,100554.91
2019-02-06T20:22:29.509Z,100551.14
2019-02-06T20:26:36.643Z,100542.36
2019-02-06T20:30:44.793Z,100530.59
2019-02-06T20:34:51.846Z,100523.12
2019-02-06T20:38:59.024Z,100517.95
2019-02-06T20:43:06.481Z,100516.07
2019-02-06T20:47:13.600Z,100522.27
2019-02-06T20:51:20.874Z,100516.02
2019-02-06T20:55:28.188Z,100515.64
2019-02-06T20:59:35.195Z,100509.84
2019-02-06T21:03:42.404Z,100497.13
2019-02-06T21:07:49.513Z,100489.47
2019-02-06T21:11:56.885Z,100490.34
2019-02-06T21:16:06.161Z,100495.42
2019-02-06T21:20:18.854Z,100497.27
2019-02-06T21:24:34.150Z,100498.80
2019-02-06T21:28:41.200Z,100490.97
2019-02-06T21:32:48.453Z,100486.13
2019-02-06T21:37:13.864Z,100473.99
2019-02-06T21:41:20.887Z,100466.06
2019-02-06T21:45:27.775Z,100468.42
2019-02-06T21:49:36.671Z,100461.45
2019-02-06T21:53:44.147Z,100466.30
2019-02-06T21:57:51.703Z,100457.35
2019-02-06T22:01:58.873Z,100444.52
2019-02-06T22:06:06.309Z,100444.76
2019-02-06T22:10:15.050Z,100441.27
2019-02-06T22:14:22.184Z,100426.52
2019-02-06T22:18:29.368Z,100430.19
2019-02-06T22:22:36.569Z,100432.97
2019-02-06T22:26:47.479Z,100425.93
2019-02-06T22:30:54.538Z,100420.55
2019-02-06T22:35:05.378Z,100412.72
2019-02-06T22:39:15.177Z,100403.11
2019-02-06T22:43:22.204Z,100401.84
2019-02-06T22:47:29.632Z,100405.88
2019-02-06T22:51:36.554Z,100402.31
2019-02-06T22:55:43.570Z,100397.51
2019-02-06T22:59:50.587Z,100396.66
2019-02-06T23:03:57.669Z,100399.82
2019-02-06T23:08:05.808Z,100396.77
2019-02-06T23:12:13.019Z,100392.34
2019-02-06T23:16:21.452Z,100390.24
2019-02-06T23:20:28.614Z,100377.61
2019-02-06T23:24:35.509Z,100363.11
2019-02-06T23:28:43.014Z,100358.13
2019-02-06T23:32:50.015Z,100351.23
2019-02-06T23:36:57.003Z,100332.86
2019-02-06T23:41:04.349Z,100332.55
2019-02-06T23:45:11.718Z,100324.25
2019-02-06T23:49:18.986Z,100320.33
2019-02-06T23:53:25.820Z,100319.70
2019-02-06T23:57:32.707Z,100317.92
